Time;durP1;ratioP1;P1;durP2;ratioP2;P2;SDS_P1;SDS_P2;PMS_P1;PMS_P2;Temp;Humidity;BMP_temperature;BMP_pressure;BME280_temperature;BME280_humidity;BME280_pressure;Samples;Min_cycle;Max_cycle;Signal;HPM_P1;HPM_P2
2023/12/04 00:00:16;;;;;;;1.40;1.30;;;8.60;79.10;;;;;;4951642;29;20222;-90
2023/12/04 00:02:48;;;;;;;1.47;1.37;;;8.60;78.50;;;;;;4941201;29;20625;-88
2023/12/04 00:05:17;;;;;;;1.23;0.70;;;8.60;78.10;;;;;;4936250;29;20206;-89
2023/12/04 00:07:49;;;;;;;0.70;0.70;;;8.60;78.00;;;;;;4944445;29;20226;-87
2023/12/04 00:10:18;;;;;;;1.57;0.97;;;8.70;78.20;;;;;;4937291;29;20270;-91
2023/12/04 00:12:47;;;;;;;0.40;0.40;;;8.60;77.70;;;;;;4939196;29;20226;-88
2023/12/04 00:15:16;;;;;;;1.90;1.80;;;8.60;78.00;;;;;;4945855;29;20198;-86
2023/12/04 00:17:45;;;;;;;1.90;1.73;;;8.60;77.70;;;;;;4946228;29;20235;-88
2023/12/04 00:20:14;;;;;;;2.40;1.67;;;8.70;77.50;;;;;;4950909;29;20643;-88
2023/12/04 00:22:54;;;;;;;1.70;1.33;;;8.70;78.00;;;;;;4947523;29;20194;-88
2023/12/04 00:25:24;;;;;;;1.53;1.43;;;8.70;77.50;;;;;;4938289;29;20206;-88
2023/12/04 00:27:53;;;;;;;0.53;0.53;;;8.70;76.90;;;;;;4943198;29;20198;-88
2023/12/04 00:30:24;;;;;;;1.97;0.93;;;8.60;76.90;;;;;;4942590;28;20726;-88
2023/12/04 00:32:53;;;;;;;1.40;1.30;;;8.60;76.70;;;;;;4944508;29;20341;-88
2023/12/04 00:35:24;;;;;;;1.87;1.43;;;8.50;76.30;;;;;;4942427;29;20612;-87
2023/12/04 00:38:02;;;;;;;3.13;1.70;;;8.50;76.60;;;;;;4942227;29;20215;-87
2023/12/04 00:40:34;;;;;;;4.17;1.77;;;8.50;77.00;;;;;;4942090;28;20674;-89
2023/12/04 00:43:05;;;;;;;1.27;1.17;;;8.50;76.90;;;;;;4941225;29;20191;-88
2023/12/04 00:45:35;;;;;;;1.43;1.23;;;8.40;76.80;;;;;;4942357;29;20718;-86
2023/12/04 00:48:05;;;;;;;0.97;0.97;;;8.40;76.30;;;;;;4948513;29;20258;-89
2023/12/04 00:50:34;;;;;;;1.03;1.03;;;8.50;76.90;;;;;;4942476;28;20681;-86
2023/12/04 00:53:05;;;;;;;4.80;1.73;;;8.50;77.00;;;;;;4943359;29;20573;-87
2023/12/04 00:55:34;;;;;;;1.97;1.80;;;8.40;76.60;;;;;;4936867;29;20198;-88
2023/12/04 00:58:04;;;;;;;2.57;1.60;;;8.40;76.70;;;;;;4940995;29;20199;-87
2023/12/04 01:00:35;;;;;;;1.33;1.20;;;8.40;76.90;;;;;;4937488;29;20195;-88
2023/12/04 01:03:04;;;;;;;0.93;0.83;;;8.40;76.90;;;;;;4944819;29;20244;-89
2023/12/04 01:05:33;;;;;;;3.43;1.53;;;8.40;77.20;;;;;;4940837;29;20209;-88
2023/12/04 01:08:02;;;;;;;1.13;1.03;;;8.30;76.70;;;;;;4942527;29;20191;-87
2023/12/04 01:10:35;;;;;;;1.10;1.00;;;8.30;76.90;;;;;;4951040;29;20451;-88
2023/12/04 01:13:03;;;;;;;0.80;0.80;;;8.30;77.50;;;;;;4941650;29;20203;-88
2023/12/04 01:15:34;;;;;;;2.73;1.60;;;8.30;77.30;;;;;;4947892;29;20211;-89
2023/12/04 01:18:04;;;;;;;1.43;1.33;;;8.30;77.00;;;;;;4939778;29;20206;-89
2023/12/04 01:20:34;;;;;;;0.43;0.43;;;8.30;77.10;;;;;;4942540;29;20215;-89
2023/12/04 01:23:07;;;;;;;1.77;1.67;;;8.30;76.90;;;;;;4946354;29;20194;-88
2023/12/04 01:25:38;;;;;;;6.90;1.43;;;8.30;77.30;;;;;;4937786;29;20678;-88
2023/12/04 01:28:08;;;;;;;0.87;0.87;;;8.20;77.50;;;;;;4939348;29;20213;-88
2023/12/04 01:30:37;;;;;;;1.17;1.13;;;8.20;77.50;;;;;;4946319;29;20228;-86
2023/12/04 01:33:11;;;;;;;3.40;1.27;;;8.30;77.60;;;;;;4944949;29;20219;-89
2023/12/04 01:35:46;;;;;;;0.90;0.90;;;8.30;77.70;;;;;;4943119;29;20191;-86
2023/12/04 01:38:16;;;;;;;1.17;1.07;;;8.30;77.60;;;;;;4947505;28;20226;-90
2023/12/04 01:40:48;;;;;;;5.30;1.53;;;8.40;77.60;;;;;;4944048;28;20203;-89
2023/12/04 01:43:18;;;;;;;1.37;1.20;;;8.30;77.30;;;;;;4941319;29;20199;-87
2023/12/04 01:45:47;;;;;;;2.90;1.17;;;8.30;77.50;;;;;;4943243;29;20211;-90
2023/12/04 01:48:16;;;;;;;0.97;0.97;;;8.30;77.20;;;;;;4940583;28;20234;-87
2023/12/04 01:50:45;;;;;;;3.20;1.40;;;8.30;77.10;;;;;;4941743;29;20227;-89
2023/12/04 01:53:17;;;;;;;1.40;1.03;;;8.30;77.30;;;;;;4939693;29;20234;-87
2023/12/04 01:55:46;;;;;;;1.70;1.23;;;8.30;77.30;;;;;;4941358;29;20198;-88
2023/12/04 01:58:17;;;;;;;3.43;1.67;;;8.30;76.70;;;;;;4943042;29;20298;-87
2023/12/04 02:00:46;;;;;;;3.40;2.10;;;8.30;76.60;;;;;;4942915;29;20214;-87
2023/12/04 02:03:15;;;;;;;1.70;1.60;;;8.30;76.80;;;;;;4940882;29;20205;-89
2023/12/04 02:05:46;;;;;;;3.93;1.27;;;8.30;76.70;;;;;;4942087;28;20195;-87
2023/12/04 02:08:20;;;;;;;1.70;1.10;;;8.30;76.40;;;;;;4937162;29;20202;-89
2023/12/04 02:10:49;;;;;;;0.50;0.50;;;8.30;76.60;;;;;;4945005;29;20542;-90
2023/12/04 02:13:22;;;;;;;1.47;1.20;;;8.30;76.50;;;;;;4954009;28;20240;-90
2023/12/04 02:15:54;;;;;;;0.63;0.63;;;8.30;76.60;;;;;;4944476;29;20210;-88
2023/12/04 02:18:26;;;;;;;1.23;1.03;;;8.20;76.30;;;;;;4949069;29;20826;-90
2023/12/04 02:20:55;;;;;;;1.40;1.30;;;8.30;76.40;;;;;;4944509;29;20289;-87
2023/12/04 02:23:24;;;;;;;0.60;0.60;;;8.20;76.20;;;;;;4946926;29;20230;-87
2023/12/04 02:26:00;;;;;;;3.70;1.90;;;8.20;76.10;;;;;;4943743;29;20191;-87
2023/12/04 02:28:35;;;;;;;0.83;0.83;;;8.20;76.30;;;;;;4943590;29;20209;-89
2023/12/04 02:31:08;;;;;;;1.80;1.00;;;8.20;76.20;;;;;;4939113;29;20218;-87
2023/12/04 02:33:40;;;;;;;6.47;1.87;;;8.20;76.40;;;;;;4939994;29;20201;-88
2023/12/04 02:36:12;;;;;;;1.17;1.10;;;8.20;76.40;;;;;;4942312;29;20203;-88
2023/12/04 02:38:41;;;;;;;1.90;0.80;;;8.20;76.10;;;;;;4943148;29;20254;-87
2023/12/04 02:41:12;;;;;;;3.13;2.50;;;8.10;76.20;;;;;;4939174;29;20274;-89
2023/12/04 02:43:41;;;;;;;0.50;0.50;;;8.10;76.50;;;;;;4937171;29;20202;-88
2023/12/04 02:46:13;;;;;;;1.43;1.33;;;8.10;76.50;;;;;;4942422;29;20282;-86
2023/12/04 02:48:42;;;;;;;1.00;1.00;;;8.10;76.60;;;;;;4937107;29;20211;-88
2023/12/04 02:51:12;;;;;;;1.40;1.30;;;8.10;76.70;;;;;;4940539;29;20269;-88
2023/12/04 02:53:42;;;;;;;1.40;1.30;;;8.10;76.80;;;;;;4944624;29;20205;-88
2023/12/04 02:56:13;;;;;;;9.30;1.37;;;8.10;76.80;;;;;;4941068;29;20206;-86
2023/12/04 02:58:43;;;;;;;1.37;1.30;;;8.10;77.10;;;;;;4944457;29;20210;-87
2023/12/04 03:01:13;;;;;;;1.60;1.33;;;8.10;77.20;;;;;;4939792;29;21633;-88
2023/12/04 03:03:41;;;;;;;1.03;1.03;;;8.00;77.10;;;;;;4939491;29;20206;-88
2023/12/04 03:06:12;;;;;;;2.17;1.53;;;8.00;77.20;;;;;;4938819;29;20285;-86
2023/12/04 03:08:42;;;;;;;1.40;1.30;;;8.00;77.20;;;;;;4945280;29;20195;-88
2023/12/04 03:11:19;;;;;;;3.40;1.60;;;8.00;77.20;;;;;;4941315;29;20829;-89
2023/12/04 03:13:49;;;;;;;1.80;1.70;;;8.00;77.30;;;;;;4945734;29;20208;-87
2023/12/04 03:16:19;;;;;;;1.27;1.17;;;8.10;77.50;;;;;;4943995;29;20237;-89
2023/12/04 03:18:52;;;;;;;0.80;0.80;;;8.10;77.60;;;;;;4945441;29;20660;-87
2023/12/04 03:21:21;;;;;;;0.80;0.80;;;8.00;77.50;;;;;;4937517;29;20199;-88
2023/12/04 03:23:56;;;;;;;1.37;1.27;;;8.10;77.60;;;;;;4937995;29;20206;-87
2023/12/04 03:26:26;;;;;;;1.53;1.43;;;8.10;77.70;;;;;;4936093;29;20653;-88
2023/12/04 03:28:58;;;;;;;5.07;2.20;;;8.10;77.80;;;;;;4944873;29;20556;-88
2023/12/04 03:31:28;;;;;;;4.80;1.33;;;8.10;77.70;;;;;;4941563;29;20231;-87
2023/12/04 03:33:57;;;;;;;1.73;1.17;;;8.10;77.80;;;;;;4939371;29;20678;-88
2023/12/04 03:36:27;;;;;;;2.03;1.47;;;8.10;77.80;;;;;;4947675;29;20241;-88
2023/12/04 03:38:57;;;;;;;1.53;1.43;;;8.10;78.00;;;;;;4937371;29;20249;-88
2023/12/04 03:41:32;;;;;;;2.37;1.73;;;8.10;77.90;;;;;;4941232;29;20564;-88
2023/12/04 03:44:01;;;;;;;1.23;1.17;;;8.10;78.10;;;;;;4938134;29;20197;-88
2023/12/04 03:46:33;;;;;;;1.53;1.43;;;8.00;78.10;;;;;;4940296;29;20622;-87
2023/12/04 03:49:03;;;;;;;3.17;1.53;;;8.10;78.30;;;;;;4934714;29;20213;-87
2023/12/04 03:51:32;;;;;;;1.80;1.67;;;8.10;78.40;;;;;;4943153;29;20236;-87
2023/12/04 03:54:07;;;;;;;1.40;1.30;;;8.00;78.60;;;;;;4937341;29;20274;-88
2023/12/04 03:56:38;;;;;;;1.43;1.33;;;8.00;78.80;;;;;;4939375;29;20289;-90
2023/12/04 03:59:07;;;;;;;1.33;1.20;;;8.00;78.90;;;;;;4940938;29;20289;-87
2023/12/04 04:01:36;;;;;;;1.07;1.07;;;8.10;79.00;;;;;;4939590;29;20227;-89
2023/12/04 04:04:08;;;;;;;3.47;1.87;;;8.10;79.00;;;;;;4943988;29;20216;-88
2023/12/04 04:06:43;;;;;;;0.60;0.60;;;8.10;79.10;;;;;;4936506;29;20203;-89
2023/12/04 04:09:13;;;;;;;1.23;1.13;;;8.10;79.10;;;;;;4939311;29;20198;-89
2023/12/04 04:11:46;;;;;;;2.93;2.57;;;8.10;79.10;;;;;;4938899;29;20610;-88
2023/12/04 04:14:15;;;;;;;2.20;1.93;;;8.10;79.60;;;;;;4937637;29;20568;-87
2023/12/04 04:16:46;;;;;;;0.97;0.80;;;8.10;79.70;;;;;;4939690;29;20346;-88
2023/12/04 04:19:18;;;;;;;1.33;1.30;;;8.20;79.90;;;;;;4945882;29;20198;-87
2023/12/04 04:21:46;;;;;;;3.43;2.30;;;8.10;80.20;;;;;;4949669;29;20237;-89
2023/12/04 04:24:15;;;;;;;2.00;1.50;;;8.10;80.30;;;;;;4942411;28;20195;-89
2023/12/04 04:26:46;;;;;;;1.20;1.20;;;8.10;80.50;;;;;;4943986;29;20208;-89
2023/12/04 04:29:15;;;;;;;1.50;1.40;;;8.20;80.70;;;;;;4944598;29;20198;-87
2023/12/04 04:31:43;;;;;;;0.87;0.83;;;8.20;80.90;;;;;;4940769;29;20214;-88
2023/12/04 04:34:12;;;;;;;6.23;1.80;;;8.20;81.30;;;;;;4947745;29;20226;-87
2023/12/04 04:36:49;;;;;;;2.10;2.00;;;8.10;81.10;;;;;;4943024;29;20209;-87
2023/12/04 04:39:17;;;;;;;1.97;1.60;;;8.10;81.30;;;;;;4953995;28;20209;-87
2023/12/04 04:41:48;;;;;;;2.90;1.07;;;8.10;81.40;;;;;;4943922;29;20195;-85
2023/12/04 04:44:17;;;;;;;1.23;1.20;;;8.10;81.40;;;;;;4942736;29;20199;-88
2023/12/04 04:46:47;;;;;;;1.80;1.70;;;8.10;81.50;;;;;;4950472;29;20206;-87
2023/12/04 04:49:17;;;;;;;1.17;1.10;;;8.10;81.50;;;;;;4949678;29;20534;-89
2023/12/04 04:51:52;;;;;;;1.20;1.20;;;8.10;81.40;;;;;;4947580;29;20226;-86
2023/12/04 04:54:21;;;;;;;1.87;1.73;;;8.10;81.50;;;;;;4943939;28;20199;-86
2023/12/04 04:56:52;;;;;;;0.90;0.90;;;8.10;81.50;;;;;;4941196;29;20206;-87
2023/12/04 04:59:21;;;;;;;1.83;1.70;;;8.10;81.50;;;;;;4943493;29;20245;-89
2023/12/04 05:01:50;;;;;;;0.93;0.93;;;8.10;81.50;;;;;;4942703;29;20222;-88
2023/12/04 05:04:21;;;;;;;5.17;2.47;;;8.10;81.50;;;;;;4944688;29;20659;-88
2023/12/04 05:06:54;;;;;;;3.30;1.37;;;8.10;81.40;;;;;;4939337;29;20289;-89
2023/12/04 05:09:24;;;;;;;1.70;1.57;;;8.10;81.30;;;;;;4947767;28;20541;-87
2023/12/04 05:11:57;;;;;;;1.00;1.00;;;8.00;81.20;;;;;;4937780;29;20571;-85
2023/12/04 05:14:27;;;;;;;1.50;1.40;;;8.00;81.30;;;;;;4942092;28;20195;-87
2023/12/04 05:16:55;;;;;;;0.53;0.53;;;8.00;81.20;;;;;;4947341;29;20654;-88
2023/12/04 05:19:24;;;;;;;2.40;1.30;;;8.00;81.20;;;;;;4943718;29;20218;-88
2023/12/04 05:21:57;;;;;;;1.87;1.60;;;7.90;81.20;;;;;;4941118;29;20287;-87
2023/12/04 05:24:26;;;;;;;0.67;0.67;;;8.00;81.50;;;;;;4940510;29;20235;-87
2023/12/04 05:27:01;;;;;;;3.73;1.70;;;7.90;81.50;;;;;;4945511;28;20206;-88
2023/12/04 05:29:32;;;;;;;0.57;0.57;;;7.90;81.50;;;;;;4939408;29;20283;-88
2023/12/04 05:32:01;;;;;;;2.23;2.03;;;7.90;81.40;;;;;;4941461;29;20227;-88
2023/12/04 05:34:30;;;;;;;1.07;1.07;;;7.90;81.60;;;;;;4945000;29;20207;-88
2023/12/04 05:36:59;;;;;;;2.53;2.33;;;7.90;81.50;;;;;;4941084;29;20203;-87
2023/12/04 05:39:28;;;;;;;2.77;1.10;;;7.90;81.50;;;;;;4943248;29;20210;-87
2023/12/04 05:41:59;;;;;;;2.97;1.73;;;7.90;81.60;;;;;;4948064;29;20194;-87
2023/12/04 05:44:30;;;;;;;1.17;1.07;;;7.90;81.60;;;;;;4938779;29;20242;-87
2023/12/04 05:46:59;;;;;;;1.67;1.10;;;7.90;81.60;;;;;;4939556;29;20199;-87
2023/12/04 05:49:30;;;;;;;1.80;1.37;;;7.90;81.60;;;;;;4942041;29;20225;-86
2023/12/04 05:51:59;;;;;;;2.00;1.70;;;7.90;81.60;;;;;;4938336;29;20219;-87
2023/12/04 05:54:28;;;;;;;1.97;1.80;;;7.80;81.60;;;;;;4943280;29;20202;-85
2023/12/04 05:57:01;;;;;;;0.63;0.63;;;7.80;81.70;;;;;;4941679;29;20548;-87
2023/12/04 05:59:31;;;;;;;0.90;0.90;;;7.80;81.80;;;;;;4942439;29;20310;-87
2023/12/04 06:02:03;;;;;;;2.50;2.23;;;7.80;81.80;;;;;;4926022;29;20710;-88
2023/12/04 06:04:34;;;;;;;2.10;1.60;;;7.80;81.80;;;;;;4943339;29;20199;-86
2023/12/04 06:07:03;;;;;;;2.70;1.30;;;7.80;81.80;;;;;;4941057;29;20195;-89
2023/12/04 06:09:33;;;;;;;2.47;2.27;;;7.80;81.70;;;;;;4933596;29;20199;-86
2023/12/04 06:12:08;;;;;;;0.87;0.87;;;7.80;82.30;;;;;;4947065;29;20257;-89
2023/12/04 06:14:46;;;;;;;7.17;3.30;;;7.90;81.50;;;;;;4938235;29;20195;-88
2023/12/04 06:17:16;;;;;;;6.77;3.37;;;7.80;81.30;;;;;;4942567;29;20210;-88
2023/12/04 06:19:46;;;;;;;3.47;2.47;;;7.80;81.20;;;;;;4938875;29;20215;-87
2023/12/04 06:22:18;;;;;;;0.90;0.90;;;7.80;81.20;;;;;;4941663;29;20769;-87
2023/12/04 06:24:50;;;;;;;1.37;1.27;;;7.80;81.10;;;;;;4940063;29;20210;-87
2023/12/04 06:27:26;;;;;;;1.73;1.63;;;7.80;81.20;;;;;;4948169;29;20281;-87
2023/12/04 06:29:55;;;;;;;2.53;1.60;;;7.90;81.20;;;;;;4936094;29;20663;-87
2023/12/04 06:32:35;;;;;;;1.40;1.30;;;7.90;81.20;;;;;;4937927;29;20268;-89
2023/12/04 06:35:06;;;;;;;1.93;1.10;;;7.90;80.80;;;;;;4939771;29;20254;-90
2023/12/04 06:37:37;;;;;;;1.40;1.30;;;7.90;80.70;;;;;;4942984;29;20666;-88
2023/12/04 06:40:10;;;;;;;1.33;1.23;;;7.80;80.50;;;;;;4941591;29;20208;-90
2023/12/04 06:42:42;;;;;;;1.13;1.13;;;7.90;80.50;;;;;;4944737;28;20225;-87
2023/12/04 06:45:14;;;;;;;12.13;2.40;;;7.90;80.50;;;;;;4943385;29;20698;-88
2023/12/04 06:47:47;;;;;;;1.63;1.53;;;7.90;80.30;;;;;;4941246;29;20205;-88
2023/12/04 06:50:16;;;;;;;2.50;1.55;;;7.90;80.10;;;;;;4940074;29;20451;-86
2023/12/04 06:52:46;;;;;;;1.20;1.13;;;7.90;80.70;;;;;;4946022;29;20219;-87
2023/12/04 06:55:18;;;;;;;1.30;1.23;;;7.90;80.30;;;;;;4938248;29;20262;-86
2023/12/04 06:57:49;;;;;;;1.60;1.27;;;7.90;80.10;;;;;;4946435;28;20195;-87
2023/12/04 07:00:20;;;;;;;0.77;0.77;;;7.90;79.80;;;;;;4937624;28;20262;-87
2023/12/04 07:02:51;;;;;;;1.80;1.47;;;7.90;79.20;;;;;;4944382;29;20262;-87
2023/12/04 07:05:21;;;;;;;0.80;0.80;;;7.90;79.30;;;;;;4940671;29;20203;-88
2023/12/04 07:07:51;;;;;;;4.20;1.60;;;7.90;79.30;;;;;;4946076;29;20202;-87
2023/12/04 07:10:19;;;;;;;3.73;0.97;;;8.00;79.50;;;;;;4944111;29;20204;-89
2023/12/04 07:12:50;;;;;;;0.90;0.90;;;7.90;79.20;;;;;;4941758;29;20233;-89
2023/12/04 07:15:20;;;;;;;0.67;0.67;;;7.90;79.20;;;;;;4947088;29;20549;-88
2023/12/04 07:17:49;;;;;;;1.43;1.00;;;8.00;79.40;;;;;;4934063;28;20651;-89
2023/12/04 07:20:24;;;;;;;1.90;1.80;;;8.00;79.40;;;;;;4942132;29;20209;-88
2023/12/04 07:22:53;;;;;;;1.47;1.37;;;8.00;79.30;;;;;;4942486;28;20191;-89
2023/12/04 07:25:24;;;;;;;4.33;2.23;;;8.00;79.30;;;;;;4944789;29;20199;-88
2023/12/04 07:27:57;;;;;;;3.23;1.73;;;8.00;79.00;;;;;;4942197;29;20195;-89
2023/12/04 07:30:34;;;;;;;1.23;1.13;;;8.00;79.20;;;;;;4948963;29;20203;-89
2023/12/04 07:33:03;;;;;;;0.63;0.63;;;8.00;78.90;;;;;;4938474;29;20232;-87
2023/12/04 07:35:37;;;;;;;1.37;1.37;;;8.00;78.80;;;;;;4935305;29;20202;-89
2023/12/04 07:38:06;;;;;;;2.67;1.27;;;8.00;79.00;;;;;;4938432;29;20215;-87
2023/12/04 07:40:34;;;;;;;0.90;0.90;;;8.00;79.00;;;;;;4938213;29;20644;-87
2023/12/04 07:43:05;;;;;;;2.30;2.10;;;8.00;79.10;;;;;;4935206;29;20644;-87
2023/12/04 07:45:36;;;;;;;1.70;1.53;;;8.00;78.70;;;;;;4939190;29;20211;-89
2023/12/04 07:48:07;;;;;;;1.47;1.37;;;8.00;78.90;;;;;;4940714;29;20199;-87
2023/12/04 07:50:38;;;;;;;2.20;2.00;;;8.00;79.00;;;;;;4935442;29;20557;-86
2023/12/04 07:53:09;;;;;;;2.17;1.73;;;8.00;78.60;;;;;;4940221;28;20234;-85
2023/12/04 07:55:38;;;;;;;1.53;1.40;;;8.00;78.40;;;;;;4944804;29;20194;-85
2023/12/04 07:58:08;;;;;;;0.70;0.70;;;8.00;78.70;;;;;;4943415;29;20207;-90
2023/12/04 08:00:38;;;;;;;2.20;2.00;;;8.10;79.70;;;;;;4937960;29;20206;-91
2023/12/04 08:03:09;;;;;;;1.67;1.57;;;8.10;79.10;;;;;;4895757;29;1383770;-91
2023/12/04 08:05:38;;;;;;;5.37;3.23;;;8.20;79.10;;;;;;4944006;28;20737;-87
2023/12/04 08:08:08;;;;;;;1.07;1.07;;;8.20;79.00;;;;;;4942793;29;20233;-87
2023/12/04 08:10:39;;;;;;;1.23;1.13;;;8.20;79.00;;;;;;4943128;28;20197;-90
2023/12/04 08:13:14;;;;;;;3.40;1.13;;;8.20;78.90;;;;;;4943953;28;20285;-87
2023/12/04 08:15:44;;;;;;;0.80;0.77;;;8.20;78.80;;;;;;4954759;29;20630;-88
2023/12/04 08:18:14;;;;;;;0.87;0.87;;;8.30;78.80;;;;;;4937771;29;20565;-88
2023/12/04 08:20:43;;;;;;;1.00;1.00;;;8.30;78.90;;;;;;4936436;29;20202;-89
2023/12/04 08:23:12;;;;;;;2.13;1.93;;;8.30;78.80;;;;;;4952201;29;20222;-89
2023/12/04 08:25:41;;;;;;;2.60;1.33;;;8.40;78.80;;;;;;4940191;29;20312;-84
2023/12/04 08:28:17;;;;;;;2.00;1.80;;;8.40;78.50;;;;;;4940298;29;20668;-88
2023/12/04 08:30:47;;;;;;;0.70;0.70;;;8.40;78.60;;;;;;4940840;29;20202;-87
2023/12/04 08:33:20;;;;;;;1.27;1.17;;;8.40;78.60;;;;;;4941862;29;20227;-91
2023/12/04 08:35:51;;;;;;;3.70;2.10;;;8.40;78.30;;;;;;4946027;29;20206;-91
2023/12/04 08:38:27;;;;;;;1.63;0.87;;;8.50;78.30;;;;;;4940613;29;20203;-92
2023/12/04 08:41:07;;;;;;;6.07;1.53;;;8.50;78.00;;;;;;4947796;29;20183;-91
2023/12/04 08:43:39;;;;;;;1.53;1.33;;;8.50;77.80;;;;;;4940844;29;20199;-89
2023/12/04 08:46:12;;;;;;;0.80;0.80;;;8.50;77.70;;;;;;4942659;29;20615;-89
2023/12/04 08:48:42;;;;;;;1.77;1.63;;;8.50;77.70;;;;;;4937306;29;20231;-87
2023/12/04 08:51:17;;;;;;;1.87;1.30;;;8.50;77.80;;;;;;4937714;29;20190;-87
2023/12/04 08:53:47;;;;;;;2.07;1.17;;;8.50;77.40;;;;;;4943157;29;20306;-88
2023/12/04 08:56:16;;;;;;;2.37;2.10;;;8.50;77.00;;;;;;4939819;29;20207;-87
2023/12/04 08:58:57;;;;;;;1.70;1.60;;;8.50;76.90;;;;;;4938588;29;20234;-88
2023/12/04 09:01:26;;;;;;;1.17;1.07;;;8.50;76.90;;;;;;4934304;28;20591;-82
2023/12/04 09:03:55;;;;;;;0.97;0.97;;;8.50;76.70;;;;;;4936187;29;20195;-81
2023/12/04 09:06:24;;;;;;;1.33;1.23;;;8.50;76.70;;;;;;4934503;29;20250;-83
2023/12/04 09:09:15;;;;;;;1.23;1.13;;;8.40;76.80;;;;;;4941697;28;20638;-82
2023/12/04 09:11:44;;;;;;;5.10;1.80;;;8.40;76.60;;;;;;4943001;29;20214;-85
2023/12/04 09:14:15;;;;;;;3.13;2.13;;;8.50;76.80;;;;;;4936033;29;20223;-83
2023/12/04 09:16:45;;;;;;;1.27;1.20;;;8.50;76.50;;;;;;4943639;29;20207;-87
2023/12/04 09:19:20;;;;;;;2.90;1.93;;;8.50;76.40;;;;;;4948617;29;20203;-90
2023/12/04 09:21:49;;;;;;;1.07;1.07;;;8.50;76.30;;;;;;4947079;29;20597;-93
2023/12/04 09:24:38;;;;;;;1.03;1.00;;;8.60;76.20;;;;;;4957558;29;20253;-91
2023/12/04 09:27:10;;;;;;;1.07;0.97;;;8.60;76.10;;;;;;4949008;29;20214;-92
2023/12/04 09:29:42;;;;;;;1.50;1.40;;;8.60;76.10;;;;;;4944453;29;20689;-92
2023/12/04 09:32:15;;;;;;;3.87;0.97;;;8.60;75.70;;;;;;4949969;29;20206;-90
2023/12/04 09:34:53;;;;;;;4.27;1.20;;;8.50;73.90;;;;;;4949863;28;20472;-91
2023/12/04 09:37:24;;;;;;;3.03;1.50;;;8.50;74.50;;;;;;4948130;29;20635;-90
2023/12/04 09:39:59;;;;;;;2.30;0.93;;;8.50;74.80;;;;;;4949881;28;20401;-90
2023/12/04 09:42:33;;;;;;;1.50;1.40;;;8.50;74.40;;;;;;4944651;29;20203;-90
2023/12/04 09:45:04;;;;;;;0.67;0.67;;;8.50;74.10;;;;;;4950140;29;20195;-90
2023/12/04 09:47:35;;;;;;;5.10;1.73;;;8.50;74.50;;;;;;4955513;29;20255;-91
2023/12/04 09:50:05;;;;;;;1.37;1.27;;;8.50;74.80;;;;;;4938232;29;20203;-86
2023/12/04 09:52:36;;;;;;;1.80;1.60;;;8.50;75.10;;;;;;4942113;29;20187;-80
2023/12/04 09:55:06;;;;;;;1.83;1.63;;;8.60;75.10;;;;;;4939680;29;20207;-87
2023/12/04 09:57:36;;;;;;;0.50;0.50;;;8.50;74.00;;;;;;4945131;29;20296;-86
2023/12/04 10:00:09;;;;;;;2.30;1.47;;;8.60;74.50;;;;;;4946937;28;20259;-87
2023/12/04 10:02:38;;;;;;;1.30;1.20;;;8.50;74.40;;;;;;4943775;29;20277;-87
2023/12/04 10:05:48;;;;;;;2.00;1.37;;;8.50;75.50;;;;;;4951706;29;20545;-88
2023/12/04 10:08:17;;;;;;;1.70;1.60;;;8.50;74.30;;;;;;4945541;29;20202;-90
2023/12/04 10:10:47;;;;;;;3.30;1.73;;;8.40;74.00;;;;;;4941477;29;20569;-89
2023/12/04 10:13:16;;;;;;;1.03;1.03;;;8.40;73.70;;;;;;4949924;28;20239;-91
2023/12/04 10:16:08;;;;;;;1.20;1.10;;;8.40;73.80;;;;;;4938944;29;20203;-89
2023/12/04 10:18:39;;;;;;;1.70;1.07;;;8.50;74.40;;;;;;4941600;29;20307;-90
2023/12/04 10:21:09;;;;;;;1.30;1.20;;;8.50;74.20;;;;;;4941164;29;20301;-91
2023/12/04 10:23:48;;;;;;;5.37;1.87;;;8.60;74.30;;;;;;4947105;29;20202;-87
2023/12/04 10:26:19;;;;;;;2.13;1.90;;;8.60;74.10;;;;;;4938291;29;20199;-89
2023/12/04 10:29:00;;;;;;;1.03;1.03;;;8.60;74.10;;;;;;4946777;29;20535;-87
2023/12/04 10:31:34;;;;;;;2.20;1.47;;;8.70;74.40;;;;;;4952100;29;20693;-88
2023/12/04 10:34:05;;;;;;;2.10;1.60;;;8.80;74.20;;;;;;4948650;28;20222;-87
2023/12/04 10:36:34;;;;;;;2.63;1.60;;;8.90;74.00;;;;;;4946969;29;20287;-89
2023/12/04 10:39:05;;;;;;;0.70;0.67;;;9.00;74.30;;;;;;4939610;29;20624;-90
2023/12/04 10:41:35;;;;;;;1.10;1.03;;;9.10;73.80;;;;;;4943695;29;20282;-86
2023/12/04 10:44:06;;;;;;;1.43;1.33;;;9.20;73.60;;;;;;4941779;29;20199;-89
2023/12/04 10:46:50;;;;;;;2.80;1.77;;;9.30;73.10;;;;;;4945516;29;20198;-93
2023/12/04 10:49:19;;;;;;;1.60;1.33;;;9.40;73.20;;;;;;4937787;29;20202;-88
2023/12/04 10:51:51;;;;;;;1.53;1.43;;;9.50;72.80;;;;;;4940149;29;20231;-88
2023/12/04 10:54:22;;;;;;;3.03;1.67;;;9.60;73.00;;;;;;4944603;29;20230;-89
2023/12/04 10:56:56;;;;;;;13.30;1.50;;;9.60;72.80;;;;;;4949086;29;20190;-87
2023/12/04 10:59:32;;;;;;;10.20;1.33;;;9.70;72.00;;;;;;4948947;28;20658;-88
2023/12/04 11:02:08;;;;;;;0.87;0.87;;;9.80;72.10;;;;;;4938083;29;20958;-87
2023/12/04 11:04:42;;;;;;;0.60;0.60;;;9.90;72.20;;;;;;4940159;28;20210;-88
2023/12/04 11:07:20;;;;;;;3.33;2.37;;;10.00;72.10;;;;;;4936816;29;20202;-89
2023/12/04 11:09:51;;;;;;;3.28;1.73;;;10.00;69.80;;;;;;4937066;29;20481;-88
2023/12/04 11:12:24;;;;;;;0.87;0.87;;;10.10;70.60;;;;;;4939697;29;20294;-89
2023/12/04 11:15:00;;;;;;;1.20;1.10;;;10.20;70.50;;;;;;4938057;29;20225;-89
2023/12/04 11:17:36;;;;;;;1.60;1.43;;;10.30;70.50;;;;;;4939857;29;20198;-90
2023/12/04 11:20:11;;;;;;;3.23;1.27;;;10.40;69.80;;;;;;4939515;29;20678;-86
2023/12/04 11:22:42;;;;;;;1.90;1.73;;;10.50;69.00;;;;;;4936416;29;20534;-87
2023/12/04 11:25:13;;;;;;;0.70;0.70;;;10.60;69.80;;;;;;4938245;28;20211;-87
2023/12/04 11:27:45;;;;;;;1.77;1.53;;;10.60;68.70;;;;;;4944799;29;20206;-89
2023/12/04 11:30:16;;;;;;;2.27;2.07;;;10.60;67.50;;;;;;4938312;29;20199;-87
2023/12/04 11:32:51;;;;;;;1.43;1.33;;;10.70;67.60;;;;;;4939564;29;20651;-87
2023/12/04 11:35:22;;;;;;;1.47;1.37;;;10.80;68.10;;;;;;4937008;29;20250;-87
2023/12/04 11:37:55;;;;;;;1.87;1.40;;;10.80;68.50;;;;;;4938133;29;20202;-88
2023/12/04 11:40:25;;;;;;;4.60;1.90;;;10.90;68.70;;;;;;4939737;28;20195;-86
2023/12/04 11:42:54;;;;;;;2.03;1.37;;;10.90;68.40;;;;;;4956172;29;20195;-90
2023/12/04 11:45:23;;;;;;;2.20;0.83;;;11.00;67.30;;;;;;4949106;29;20202;-93
2023/12/04 11:47:56;;;;;;;1.03;1.03;;;11.00;67.00;;;;;;4938093;29;21152;-88
2023/12/04 11:50:26;;;;;;;1.43;1.30;;;11.10;67.10;;;;;;4947542;29;20191;-90
2023/12/04 11:52:55;;;;;;;2.10;2.00;;;11.10;66.90;;;;;;4937969;29;20203;-89
2023/12/04 11:55:27;;;;;;;6.63;1.47;;;11.10;66.90;;;;;;4938013;29;20214;-90
2023/12/04 11:57:57;;;;;;;2.43;1.90;;;11.10;65.50;;;;;;4937637;29;20203;-87
2023/12/04 12:00:26;;;;;;;1.53;1.10;;;11.20;66.10;;;;;;4940548;29;20206;-93
2023/12/04 12:03:09;;;;;;;0.93;0.70;;;11.20;66.50;;;;;;4951843;28;20289;-90
2023/12/04 12:05:51;;;;;;;1.60;1.43;;;11.20;66.20;;;;;;4939047;28;20230;-88
2023/12/04 12:08:25;;;;;;;4.07;1.77;;;11.10;65.60;;;;;;4939146;29;20238;-89
2023/12/04 12:10:57;;;;;;;0.47;0.47;;;11.20;66.10;;;;;;4937696;28;20602;-88
2023/12/04 12:13:27;;;;;;;2.33;1.77;;;11.20;66.20;;;;;;4941620;29;20199;-89
2023/12/04 12:15:59;;;;;;;3.03;1.83;;;11.20;66.60;;;;;;4950851;28;20223;-87
2023/12/04 12:18:32;;;;;;;2.00;1.87;;;11.10;65.60;;;;;;4946100;29;20286;-88
2023/12/04 12:21:01;;;;;;;1.03;0.93;;;11.20;66.20;;;;;;4941495;29;20290;-87
2023/12/04 12:23:31;;;;;;;1.07;1.07;;;11.20;66.30;;;;;;4946975;28;20230;-88
2023/12/04 12:26:01;;;;;;;0.80;0.80;;;11.30;66.20;;;;;;4946569;28;20261;-88
2023/12/04 12:28:30;;;;;;;1.93;0.97;;;11.30;65.80;;;;;;4943348;28;20203;-90
2023/12/04 12:31:03;;;;;;;1.33;1.23;;;11.20;64.90;;;;;;4937751;29;20203;-88
2023/12/04 12:33:37;;;;;;;1.27;1.17;;;11.20;64.90;;;;;;4936550;28;20655;-88
2023/12/04 12:36:11;;;;;;;0.60;0.60;;;11.20;66.10;;;;;;4938480;28;20234;-88
2023/12/04 12:38:41;;;;;;;1.93;1.37;;;11.20;65.30;;;;;;4939758;28;20207;-87
2023/12/04 12:41:12;;;;;;;2.27;1.37;;;11.10;64.90;;;;;;4944334;28;20230;-87
2023/12/04 12:43:42;;;;;;;4.13;1.37;;;11.10;64.40;;;;;;4951766;29;20596;-88
2023/12/04 12:46:13;;;;;;;1.43;1.33;;;11.00;64.60;;;;;;4941431;28;20211;-86
2023/12/04 12:48:45;;;;;;;1.83;1.43;;;11.00;64.60;;;;;;4937860;28;20231;-86
2023/12/04 12:51:16;;;;;;;3.73;1.63;;;11.10;64.80;;;;;;4950841;28;20254;-86
2023/12/04 12:53:47;;;;;;;1.07;0.90;;;11.20;64.70;;;;;;4941820;29;20195;-86
2023/12/04 12:56:22;;;;;;;0.93;0.93;;;11.30;65.60;;;;;;4933424;29;20230;-87
2023/12/04 12:58:56;;;;;;;2.43;1.40;;;11.50;65.80;;;;;;4942951;28;20246;-86
2023/12/04 13:01:26;;;;;;;1.23;1.13;;;11.70;66.80;;;;;;4940622;29;20230;-88
2023/12/04 13:04:06;;;;;;;1.03;0.70;;;12.00;65.50;;;;;;4943925;28;20262;-87
2023/12/04 13:06:39;;;;;;;1.07;1.00;;;12.20;65.00;;;;;;4939058;28;20199;-87
2023/12/04 13:09:08;;;;;;;0.60;0.60;;;12.20;62.60;;;;;;4943103;29;20254;-85
2023/12/04 13:11:37;;;;;;;1.67;1.10;;;12.40;62.20;;;;;;4944677;28;20667;-86
2023/12/04 13:14:06;;;;;;;1.23;1.00;;;12.50;62.30;;;;;;4942698;28;20234;-86
2023/12/04 13:16:35;;;;;;;3.20;1.77;;;12.60;61.30;;;;;;4943962;29;20627;-87